Time;durP1;ratioP1;P1;durP2;ratioP2;P2;SDS_P1;SDS_P2;PMS_P1;PMS_P2;Temp;Humidity;BMP_temperature;BMP_pressure;BME280_temperature;BME280_humidity;BME280_pressure;Samples;Min_cycle;Max_cycle;Signal;HPM_P1;HPM_P2
2022/04/17 00:01:28;;;;;;;;;;;;;;;;;;5009171;28;20432;-58
2022/04/17 00:03:53;;;;;;;;;;;;;;;;;;5011704;28;19917;-57
2022/04/17 00:06:19;;;;;;;;;;;;;;;;;;5012417;28;20373;-58
2022/04/17 00:08:44;;;;;;;;;;;;;;;;;;5010463;28;20031;-58
2022/04/17 00:11:09;;;;;;;;;;;;;;;;;;5010715;28;19989;-58
2022/04/17 00:13:35;;;;;;;;;;;;;;;;;;5012230;28;19917;-57
2022/04/17 00:16:00;;;;;;;;;;;;;;;;;;5013625;28;19928;-57
2022/04/17 00:18:26;;;;;;;;;;;;;;;;;;5013255;28;20250;-58
2022/04/17 00:20:51;;;;;;;;;;;;;;;;;;5019445;28;19960;-58
2022/04/17 00:23:16;;;;;;;;;;;;;;;;;;5015366;28;20272;-57
2022/04/17 00:25:41;;;;;;;;;;;;;;;;;;5018468;28;19963;-58
2022/04/17 00:28:07;;;;;;;;;;;;;;;;;;5012755;28;19917;-58
2022/04/17 00:30:32;;;;;;;;;;;;;;;;;;5012913;28;19921;-57
2022/04/17 00:32:57;;;;;;;;;;;;;;;;;;5014124;28;19951;-57
2022/04/17 00:35:22;;;;;;;;;;;;;;;;;;5015111;28;20230;-58
2022/04/17 00:37:48;;;;;;;;;;;;;;;;;;5014788;28;20294;-57
2022/04/17 00:40:13;;;;;;;;;;;;;;;;;;5041039;28;19920;-57
2022/04/17 00:42:41;;;;;;;;;;;;;;;;;;5017527;28;19928;-57
2022/04/17 00:45:06;;;;;;;;;;;;;;;;;;5018172;28;19920;-57
2022/04/17 00:47:31;;;;;;;;;;;;;;;;;;5014241;28;19921;-57
2022/04/17 00:49:57;;;;;;;;;;;;;;;;;;5012037;28;19913;-59
2022/04/17 00:52:22;;;;;;;;;;;;;;;;;;5013454;28;19957;-57
2022/04/17 00:54:47;;;;;;;;;;;;;;;;;;5015995;28;19920;-57
2022/04/17 00:57:12;;;;;;;;;;;;;;;;;;5015678;28;19921;-57
2022/04/17 00:59:38;;;;;;;;;;;;;;;;;;5014049;28;20374;-58
2022/04/17 01:02:03;;;;;;;;;;;;;;;;;;5011649;28;19924;-58
2022/04/17 01:04:28;;;;;;;;;;;;;;;;;;5013186;28;20337;-57
2022/04/17 01:06:54;;;;;;;;;;;;;;;;;;5013574;28;20393;-58
2022/04/17 01:09:20;;;;;;;;;;;;;;;;;;5044881;28;19913;-56
2022/04/17 01:11:45;;;;;;;;;;;;;;;;;;5012397;28;19914;-58
2022/04/17 01:14:12;;;;;;;;;;;;;;;;;;5010384;28;19963;-57
2022/04/17 01:16:37;;;;;;;;;;;;;;;;;;5043479;28;19913;-56
2022/04/17 01:19:04;;;;;;;;;;;;;;;;;;5032462;28;20330;-58
2022/04/17 01:21:29;;;;;;;;;;;;;;;;;;5016458;28;19924;-58
2022/04/17 01:26:59;;;;;;;;;;;;;;;;;;5013491;28;19913;-57
2022/04/17 01:29:25;;;;;;;;;;;;;;;;;;5018742;28;19925;-58
2022/04/17 01:31:50;;;;;;;;;;;;;;;;;;5010368;28;20282;-57
2022/04/17 01:34:15;;;;;;;;;;;;;;;;;;5014057;28;20440;-59
2022/04/17 01:36:41;;;;;;;;;;;;;;;;;;5011960;28;19925;-58
2022/04/17 01:39:06;;;;;;;;;;;;;;;;;;5042465;28;19923;-58
2022/04/17 01:41:31;;;;;;;;;;;;;;;;;;5029248;28;19924;-57
2022/04/17 01:43:57;;;;;;;;;;;;;;;;;;5011185;28;20330;-57
2022/04/17 01:46:22;;;;;;;;;;;;;;;;;;5013368;28;19918;-57
2022/04/17 01:48:47;;;;;;;;;;;;;;;;;;5013770;28;19944;-58
2022/04/17 01:51:13;;;;;;;;;;;;;;;;;;5014742;28;19925;-58
2022/04/17 01:53:38;;;;;;;;;;;;;;;;;;5011025;28;19917;-57
2022/04/17 01:56:03;;;;;;;;;;;;;;;;;;5028007;28;19921;-57
2022/04/17 01:58:28;;;;;;;;;;;;;;;;;;5010127;28;19916;-57
2022/04/17 02:00:53;;;;;;;;;;;;;;;;;;5015042;28;19932;-57
2022/04/17 02:03:19;;;;;;;;;;;;;;;;;;5013731;28;19924;-58
2022/04/17 02:05:44;;;;;;;;;;;;;;;;;;5012991;28;19917;-58
2022/04/17 02:08:09;;;;;;;;;;;;;;;;;;5010911;28;20275;-58
2022/04/17 02:10:34;;;;;;;;;;;;;;;;;;5014342;28;19920;-56
2022/04/17 02:13:00;;;;;;;;;;;;;;;;;;5009702;28;19966;-57
2022/04/17 02:15:25;;;;;;;;;;;;;;;;;;5009844;28;19919;-57
2022/04/17 02:17:51;;;;;;;;;;;;;;;;;;5013334;28;19913;-57
2022/04/17 02:20:16;;;;;;;;;;;;;;;;;;5014850;28;20330;-58
2022/04/17 02:22:41;;;;;;;;;;;;;;;;;;5016355;28;20329;-58
2022/04/17 02:25:06;;;;;;;;;;;;;;;;;;5015043;28;20525;-57
2022/04/17 02:27:32;;;;;;;;;;;;;;;;;;5018408;28;19918;-56
2022/04/17 02:29:57;;;;;;;;;;;;;;;;;;5018993;28;19921;-57
2022/04/17 02:32:22;;;;;;;;;;;;;;;;;;5016689;28;19917;-56
2022/04/17 02:34:47;;;;;;;;;;;;;;;;;;5017288;28;19910;-57
2022/04/17 02:37:13;;;;;;;;;;;;;;;;;;5016759;28;19928;-57
2022/04/17 02:39:38;;;;;;;;;;;;;;;;;;5019639;28;19920;-57
2022/04/17 02:42:03;;;;;;;;;;;;;;;;;;5016100;28;19917;-56
2022/04/17 02:44:28;;;;;;;;;;;;;;;;;;5010753;28;20330;-58
2022/04/17 02:49:37;;;;;;;;;;;;;;;;;;5012527;28;20432;-57
2022/04/17 02:52:04;;;;;;;;;;;;;;;;;;5017281;28;19916;-57
2022/04/17 02:54:29;;;;;;;;;;;;;;;;;;5016265;28;19924;-57
2022/04/17 02:56:55;;;;;;;;;;;;;;;;;;5016443;28;20262;-57
2022/04/17 02:59:20;;;;;;;;;;;;;;;;;;5015212;28;20333;-54
2022/04/17 03:07:13;;;;;;;;;;;;;;;;;;5016590;28;19917;-56
2022/04/17 03:09:39;;;;;;;;;;;;;;;;;;5020266;28;19920;-57
2022/04/17 03:12:04;;;;;;;;;;;;;;;;;;5047668;28;20374;-55
2022/04/17 03:14:29;;;;;;;;;;;;;;;;;;5016460;28;19919;-56
2022/04/17 03:16:54;;;;;;;;;;;;;;;;;;5012983;28;19922;-57
2022/04/17 03:19:19;;;;;;;;;;;;;;;;;;5012778;28;19914;-59
2022/04/17 03:21:45;;;;;;;;;;;;;;;;;;5015284;28;19925;-58
2022/04/17 03:24:12;;;;;;;;;;;;;;;;;;5015341;28;20016;-58
2022/04/17 03:26:41;;;;;;;;;;;;;;;;;;5019148;28;20005;-58
2022/04/17 03:29:06;;;;;;;;;;;;;;;;;;5013005;28;20342;-58
2022/04/17 03:31:31;;;;;;;;;;;;;;;;;;5046527;28;19956;-58
2022/04/17 03:33:56;;;;;;;;;;;;;;;;;;5012196;28;20009;-57
2022/04/17 03:36:21;;;;;;;;;;;;;;;;;;5017468;28;19921;-57
2022/04/17 03:38:47;;;;;;;;;;;;;;;;;;5013445;28;20259;-58
2022/04/17 03:41:12;;;;;;;;;;;;;;;;;;5015234;28;20968;-57
2022/04/17 03:43:37;;;;;;;;;;;;;;;;;;5013113;28;19917;-60
2022/04/17 03:46:02;;;;;;;;;;;;;;;;;;5014482;28;19964;-56
2022/04/17 03:48:28;;;;;;;;;;;;;;;;;;5014484;28;19909;-57
2022/04/17 03:50:53;;;;;;;;;;;;;;;;;;5014960;28;20328;-57
2022/04/17 03:53:18;;;;;;;;;;;;;;;;;;5011523;28;19924;-57
2022/04/17 03:55:43;;;;;;;;;;;;;;;;;;5014933;28;20332;-58
2022/04/17 03:58:08;;;;;;;;;;;;;;;;;;5016180;28;19917;-58
2022/04/17 04:00:34;;;;;;;;;;;;;;;;;;5015035;28;20330;-58
2022/04/17 04:02:59;;;;;;;;;;;;;;;;;;5014220;28;19928;-58
2022/04/17 04:05:25;;;;;;;;;;;;;;;;;;5020606;28;19976;-56
2022/04/17 04:07:50;;;;;;;;;;;;;;;;;;5014638;28;19947;-57
2022/04/17 04:10:15;;;;;;;;;;;;;;;;;;5017053;28;20016;-57
2022/04/17 04:12:41;;;;;;;;;;;;;;;;;;5015375;28;19975;-57
2022/04/17 04:15:06;;;;;;;;;;;;;;;;;;5017074;28;19909;-59
2022/04/17 04:17:31;;;;;;;;;;;;;;;;;;5017087;28;19913;-57
2022/04/17 04:19:56;;;;;;;;;;;;;;;;;;5011112;28;19912;-57
2022/04/17 04:22:21;;;;;;;;;;;;;;;;;;5014944;28;19967;-56
2022/04/17 04:24:47;;;;;;;;;;;;;;;;;;5011477;28;19924;-57
2022/04/17 04:29:56;;;;;;;;;;;;;;;;;;5012850;28;19913;-58
2022/04/17 04:32:21;;;;;;;;;;;;;;;;;;5012836;28;19924;-57
2022/04/17 04:34:46;;;;;;;;;;;;;;;;;;5011414;28;19948;-59
2022/04/17 04:37:11;;;;;;;;;;;;;;;;;;5014952;28;20454;-58
2022/04/17 04:39:37;;;;;;;;;;;;;;;;;;5016471;28;19914;-58
2022/04/17 04:42:03;;;;;;;;;;;;;;;;;;5013597;28;19925;-58
2022/04/17 04:44:28;;;;;;;;;;;;;;;;;;5012835;28;19923;-58
2022/04/17 04:46:55;;;;;;;;;;;;;;;;;;5013614;28;20405;-58
2022/04/17 04:49:30;;;;;;;;;;;;;;;;;;5014151;28;19920;-57
2022/04/17 04:51:55;;;;;;;;;;;;;;;;;;5012566;28;19943;-57
2022/04/17 04:54:20;;;;;;;;;;;;;;;;;;5012977;28;19909;-58
2022/04/17 04:56:45;;;;;;;;;;;;;;;;;;5010883;28;19912;-57
2022/04/17 04:59:10;;;;;;;;;;;;;;;;;;5026586;28;20406;-57
2022/04/17 05:01:36;;;;;;;;;;;;;;;;;;5047574;28;20389;-58
2022/04/17 05:04:01;;;;;;;;;;;;;;;;;;5010034;28;19914;-57
2022/04/17 05:06:26;;;;;;;;;;;;;;;;;;5013121;28;19909;-57
2022/04/17 05:08:51;;;;;;;;;;;;;;;;;;5012150;28;20274;-58
2022/04/17 05:11:17;;;;;;;;;;;;;;;;;;5015269;28;19932;-58
2022/04/17 05:13:43;;;;;;;;;;;;;;;;;;5015901;28;19921;-57
2022/04/17 05:16:08;;;;;;;;;;;;;;;;;;5011630;28;19985;-57
2022/04/17 05:18:34;;;;;;;;;;;;;;;;;;5016350;28;19915;-56
2022/04/17 05:20:59;;;;;;;;;;;;;;;;;;5014854;28;19914;-57
2022/04/17 05:23:29;;;;;;;;;;;;;;;;;;5012861;28;19928;-57
2022/04/17 05:25:54;;;;;;;;;;;;;;;;;;5013456;28;20282;-58
2022/04/17 05:28:20;;;;;;;;;;;;;;;;;;5014128;28;19955;-56
2022/04/17 05:30:45;;;;;;;;;;;;;;;;;;5010758;28;19914;-58
2022/04/17 05:33:10;;;;;;;;;;;;;;;;;;5013689;28;19917;-58
2022/04/17 05:35:35;;;;;;;;;;;;;;;;;;5011165;28;19914;-58
2022/04/17 05:38:01;;;;;;;;;;;;;;;;;;5009997;28;19964;-58
2022/04/17 05:40:26;;;;;;;;;;;;;;;;;;5014984;28;20405;-59
2022/04/17 05:42:51;;;;;;;;;;;;;;;;;;5011954;28;20441;-58
2022/04/17 05:45:16;;;;;;;;;;;;;;;;;;5013031;28;20332;-58
2022/04/17 05:47:42;;;;;;;;;;;;;;;;;;5016733;28;20004;-59
2022/04/17 05:50:07;;;;;;;;;;;;;;;;;;5019183;28;20013;-58
2022/04/17 05:52:32;;;;;;;;;;;;;;;;;;5018618;28;19925;-58
2022/04/17 05:54:57;;;;;;;;;;;;;;;;;;5017189;28;20255;-57
2022/04/17 05:57:22;;;;;;;;;;;;;;;;;;5017288;28;19917;-57
2022/04/17 05:59:48;;;;;;;;;;;;;;;;;;5015554;28;20301;-57
2022/04/17 06:02:14;;;;;;;;;;;;;;;;;;5017891;28;19971;-57
2022/04/17 06:04:39;;;;;;;;;;;;;;;;;;5017209;28;19995;-57
2022/04/17 06:07:04;;;;;;;;;;;;;;;;;;5015270;28;20243;-56
2022/04/17 06:09:29;;;;;;;;;;;;;;;;;;5031895;28;20281;-57
2022/04/17 06:11:54;;;;;;;;;;;;;;;;;;5015064;28;20452;-58
2022/04/17 06:14:20;;;;;;;;;;;;;;;;;;5015310;28;19917;-57
2022/04/17 06:16:47;;;;;;;;;;;;;;;;;;5013632;28;20218;-58
2022/04/17 06:19:12;;;;;;;;;;;;;;;;;;5018216;28;20528;-56
2022/04/17 06:21:38;;;;;;;;;;;;;;;;;;5021990;28;19917;-57
2022/04/17 06:24:03;;;;;;;;;;;;;;;;;;5019778;28;19917;-58
2022/04/17 06:26:28;;;;;;;;;;;;;;;;;;5015965;28;19960;-57
2022/04/17 06:28:53;;;;;;;;;;;;;;;;;;5017874;28;19968;-58
2022/04/17 06:31:18;;;;;;;;;;;;;;;;;;5018119;28;19921;-57
2022/04/17 06:33:44;;;;;;;;;;;;;;;;;;5017244;28;19917;-57
2022/04/17 06:36:09;;;;;;;;;;;;;;;;;;5017729;28;19920;-58
2022/04/17 06:38:34;;;;;;;;;;;;;;;;;;5015198;28;19963;-56
2022/04/17 06:40:59;;;;;;;;;;;;;;;;;;5015289;28;20290;-58
2022/04/17 06:43:25;;;;;;;;;;;;;;;;;;5015802;28;20246;-57
2022/04/17 06:45:50;;;;;;;;;;;;;;;;;;5017044;28;20417;-56
2022/04/17 06:48:15;;;;;;;;;;;;;;;;;;5014521;28;19995;-56
2022/04/17 06:50:40;;;;;;;;;;;;;;;;;;5016317;28;20350;-58
2022/04/17 06:53:06;;;;;;;;;;;;;;;;;;5024115;28;20008;-57
2022/04/17 06:55:31;;;;;;;;;;;;;;;;;;5019940;28;19917;-56
2022/04/17 06:57:56;;;;;;;;;;;;;;;;;;5014222;28;20277;-58
2022/04/17 07:00:22;;;;;;;;;;;;;;;;;;5016954;28;19909;-57
2022/04/17 07:02:47;;;;;;;;;;;;;;;;;;5016321;28;19924;-57
2022/04/17 07:05:13;;;;;;;;;;;;;;;;;;5015774;28;19917;-58
2022/04/17 07:07:38;;;;;;;;;;;;;;;;;;5013582;28;19914;-59
2022/04/17 07:10:03;;;;;;;;;;;;;;;;;;5032989;28;20400;-58
2022/04/17 07:12:31;;;;;;;;;;;;;;;;;;5009651;28;19960;-58
2022/04/17 07:15:00;;;;;;;;;;;;;;;;;;5015366;28;19909;-57
2022/04/17 07:17:25;;;;;;;;;;;;;;;;;;5016304;28;19914;-58
2022/04/17 07:19:51;;;;;;;;;;;;;;;;;;5012925;28;19936;-58
2022/04/17 07:22:17;;;;;;;;;;;;;;;;;;5015205;28;20281;-57
2022/04/17 07:24:43;;;;;;;;;;;;;;;;;;5015415;28;20003;-58
2022/04/17 07:27:09;;;;;;;;;;;;;;;;;;5016197;28;20627;-58
2022/04/17 07:29:34;;;;;;;;;;;;;;;;;;5016036;28;19946;-58
2022/04/17 07:31:59;;;;;;;;;;;;;;;;;;5015442;28;20499;-57
2022/04/17 07:34:25;;;;;;;;;;;;;;;;;;5043906;28;20421;-57
2022/04/17 07:36:52;;;;;;;;;;;;;;;;;;5013534;28;19918;-58
2022/04/17 07:39:18;;;;;;;;;;;;;;;;;;5015985;28;20388;-57
2022/04/17 07:41:43;;;;;;;;;;;;;;;;;;5015837;28;20357;-57
2022/04/17 07:44:11;;;;;;;;;;;;;;;;;;5010525;28;19921;-58
2022/04/17 07:46:38;;;;;;;;;;;;;;;;;;5021840;28;20353;-58
2022/04/17 07:49:03;;;;;;;;;;;;;;;;;;5013400;28;19921;-58
2022/04/17 07:51:28;;;;;;;;;;;;;;;;;;5015177;28;20518;-57
2022/04/17 07:53:54;;;;;;;;;;;;;;;;;;5013410;28;19914;-59
2022/04/17 07:56:19;;;;;;;;;;;;;;;;;;5017820;28;19969;-57
2022/04/17 07:58:44;;;;;;;;;;;;;;;;;;5019254;28;19935;-58
2022/04/17 08:01:11;;;;;;;;;;;;;;;;;;4999901;28;19928;-57
2022/04/17 08:06:09;;;;;;;;;;;;;;;;;;5038653;28;19995;-56
2022/04/17 08:08:34;;;;;;;;;;;;;;;;;;5003430;28;20474;-57
2022/04/17 08:11:00;;;;;;;;;;;;;;;;;;5007543;28;21789;-59
2022/04/17 08:13:25;;;;;;;;;;;;;;;;;;5012573;28;19924;-57
2022/04/17 08:15:50;;;;;;;;;;;;;;;;;;5010355;28;20008;-58
2022/04/17 08:18:15;;;;;;;;;;;;;;;;;;5008420;28;19914;-58
2022/04/17 08:20:41;;;;;;;;;;;;;;;;;;5007165;28;20330;-58
2022/04/17 08:23:06;;;;;;;;;;;;;;;;;;5009965;28;19925;-58
2022/04/17 08:25:33;;;;;;;;;;;;;;;;;;5008707;28;20281;-57
2022/04/17 08:27:58;;;;;;;;;;;;;;;;;;5011265;28;19979;-58
2022/04/17 08:30:23;;;;;;;;;;;;;;;;;;5008445;28;20389;-57
2022/04/17 08:32:48;;;;;;;;;;;;;;;;;;5011832;28;20004;-58
2022/04/17 08:35:13;;;;;;;;;;;;;;;;;;5011824;28;19923;-58
2022/04/17 08:37:39;;;;;;;;;;;;;;;;;;5014955;28;20012;-59
2022/04/17 08:40:04;;;;;;;;;;;;;;;;;;5013761;28;19921;-58
2022/04/17 08:42:29;;;;;;;;;;;;;;;;;;5016951;28;19968;-58
2022/04/17 08:44:54;;;;;;;;;;;;;;;;;;5013601;28;19952;-58
2022/04/17 08:47:19;;;;;;;;;;;;;;;;;;5016599;28;19913;-57
2022/04/17 08:49:45;;;;;;;;;;;;;;;;;;5017702;28;20313;-58
2022/04/17 08:52:15;;;;;;;;;;;;;;;;;;5012990;28;19918;-58
2022/04/17 08:54:40;;;;;;;;;;;;;;;;;;5014620;28;19975;-58
2022/04/17 08:57:05;;;;;;;;;;;;;;;;;;5015339;28;20785;-58
2022/04/17 08:59:32;;;;;;;;;;;;;;;;;;5021619;28;19921;-58
2022/04/17 09:01:57;;;;;;;;;;;;;;;;;;5013360;28;19957;-59
2022/04/17 09:04:22;;;;;;;;;;;;;;;;;;5016349;28;19956;-58
2022/04/17 09:06:47;;;;;;;;;;;;;;;;;;5015085;28;19914;-57
2022/04/17 09:09:12;;;;;;;;;;;;;;;;;;5019539;28;19924;-59
2022/04/17 09:11:38;;;;;;;;;;;;;;;;;;5017611;28;19920;-59
2022/04/17 09:14:03;;;;;;;;;;;;;;;;;;5011637;28;20350;-59
2022/04/17 09:16:28;;;;;;;;;;;;;;;;;;5010350;28;19921;-58
2022/04/17 09:18:53;;;;;;;;;;;;;;;;;;5012146;28;19939;-58
2022/04/17 09:21:19;;;;;;;;;;;;;;;;;;5011029;28;19913;-59
2022/04/17 09:23:44;;;;;;;;;;;;;;;;;;5012847;28;20366;-58
2022/04/17 09:26:09;;;;;;;;;;;;;;;;;;5011407;28;19920;-58
2022/04/17 09:28:35;;;;;;;;;;;;;;;;;;5011405;28;19917;-59
2022/04/17 09:31:01;;;;;;;;;;;;;;;;;;5018171;28;19924;-58
2022/04/17 09:33:26;;;;;;;;;;;;;;;;;;5009819;28;20634;-59
2022/04/17 09:35:51;;;;;;;;;;;;;;;;;;5012620;28;20421;-59
2022/04/17 09:38:16;;;;;;;;;;;;;;;;;;5040130;28;19914;-58
2022/04/17 09:40:41;;;;;;;;;;;;;;;;;;5014615;28;19948;-59
2022/04/17 09:43:07;;;;;;;;;;;;;;;;;;5017820;28;19924;-58
2022/04/17 09:45:32;;;;;;;;;;;;;;;;;;5013304;28;20415;-57
2022/04/17 09:47:58;;;;;;;;;;;;;;;;;;5010414;28;19921;-59
2022/04/17 09:50:24;;;;;;;;;;;;;;;;;;5013322;28;19924;-58
2022/04/17 09:52:52;;;;;;;;;;;;;;;;;;5017733;28;19913;-58
2022/04/17 09:55:17;;;;;;;;;;;;;;;;;;5012667;28;19910;-59
2022/04/17 09:57:45;;;;;;;;;;;;;;;;;;5015686;28;19940;-57
2022/04/17 10:00:11;;;;;;;;;;;;;;;;;;5012950;28;19913;-58
2022/04/17 10:02:36;;;;;;;;;;;;;;;;;;5007483;28;19967;-58
2022/04/17 10:05:01;;;;;;;;;;;;;;;;;;5010681;28;19932;-58
2022/04/17 10:07:26;;;;;;;;;;;;;;;;;;5009261;28;19920;-58
2022/04/17 10:09:52;;;;;;;;;;;;;;;;;;5009014;28;19920;-58
2022/04/17 10:12:21;;;;;;;;;;;;;;;;;;5014005;28;19944;-60
2022/04/17 10:14:48;;;;;;;;;;;;;;;;;;5011512;28;20012;-57
2022/04/17 10:17:13;;;;;;;;;;;;;;;;;;5014779;28;19909;-59
2022/04/17 10:19:39;;;;;;;;;;;;;;;;;;5012896;28;19909;-59
2022/04/17 10:22:04;;;;;;;;;;;;;;;;;;5013795;28;19929;-58
2022/04/17 10:24:29;;;;;;;;;;;;;;;;;;5017378;28;19913;-58
2022/04/17 10:26:54;;;;;;;;;;;;;;;;;;5017813;28;19916;-58
2022/04/17 10:29:19;;;;;;;;;;;;;;;;;;5009069;28;20230;-58
2022/04/17 10:31:45;;;;;;;;;;;;;;;;;;5018770;28;20222;-58
2022/04/17 10:34:10;;;;;;;;;;;;;;;;;;5019162;28;19914;-58
2022/04/17 10:36:35;;;;;;;;;;;;;;;;;;5021192;28;20337;-58
2022/04/17 10:39:01;;;;;;;;;;;;;;;;;;5047379;28;19924;-59
2022/04/17 10:41:26;;;;;;;;;;;;;;;;;;5016864;28;20358;-58
2022/04/17 10:43:51;;;;;;;;;;;;;;;;;;5020033;28;19914;-58
2022/04/17 10:46:16;;;;;;;;;;;;;;;;;;5022969;28;19921;-59
2022/04/17 10:48:42;;;;;;;;;;;;;;;;;;5019141;28;19924;-58
2022/04/17 10:51:08;;;;;;;;;;;;;;;;;;5015364;28;20338;-59
2022/04/17 10:53:33;;;;;;;;;;;;;;;;;;5017277;28;19925;-58
2022/04/17 10:55:58;;;;;;;;;;;;;;;;;;5014896;28;19928;-59
2022/04/17 10:58:23;;;;;;;;;;;;;;;;;;5016814;28;20373;-61
2022/04/17 11:00:49;;;;;;;;;;;;;;;;;;5018313;28;19984;-58
2022/04/17 11:03:14;;;;;;;;;;;;;;;;;;5014887;28;20030;-59
2022/04/17 11:08:24;;;;;;;;;;;;;;;;;;5013971;28;19920;-59
2022/04/17 11:10:51;;;;;;;;;;;;;;;;;;5015392;28;19917;-58
2022/04/17 11:13:16;;;;;;;;;;;;;;;;;;5018421;28;19908;-59
2022/04/17 11:15:43;;;;;;;;;;;;;;;;;;5011763;28;19921;-59
2022/04/17 11:18:08;;;;;;;;;;;;;;;;;;5013220;28;19913;-60
2022/04/17 11:20:34;;;;;;;;;;;;;;;;;;5018871;28;19929;-58
2022/04/17 11:22:59;;;;;;;;;;;;;;;;;;5016863;28;19914;-58
2022/04/17 11:25:25;;;;;;;;;;;;;;;;;;5013823;28;19913;-59
2022/04/17 11:27:50;;;;;;;;;;;;;;;;;;5015565;28;20077;-59
2022/04/17 11:30:15;;;;;;;;;;;;;;;;;;5018189;28;19959;-58
2022/04/17 11:32:40;;;;;;;;;;;;;;;;;;5022708;28;19913;-59
2022/04/17 11:35:05;;;;;;;;;;;;;;;;;;5013522;28;19917;-59
2022/04/17 11:37:31;;;;;;;;;;;;;;;;;;5013169;28;19924;-59
2022/04/17 11:39:57;;;;;;;;;;;;;;;;;;5018913;28;19913;-58
2022/04/17 11:42:22;;;;;;;;;;;;;;;;;;5019862;28;20421;-59
2022/04/17 11:44:48;;;;;;;;;;;;;;;;;;5010163;28;20000;-59
2022/04/17 11:47:13;;;;;;;;;;;;;;;;;;5015668;28;19917;-59
2022/04/17 11:49:38;;;;;;;;;;;;;;;;;;5018773;28;20235;-59
2022/04/17 11:52:03;;;;;;;;;;;;;;;;;;5020872;28;19917;-59
2022/04/17 11:54:28;;;;;;;;;;;;;;;;;;5017056;28;19921;-58
2022/04/17 11:56:54;;;;;;;;;;;;;;;;;;5014355;28;19944;-58
2022/04/17 11:59:19;;;;;;;;;;;;;;;;;;5017085;28;20133;-61
2022/04/17 12:01:44;;;;;;;;;;;;;;;;;;5019389;28;20354;-59
2022/04/17 12:04:09;;;;;;;;;;;;;;;;;;5011839;28;20293;-60
2022/04/17 12:06:34;;;;;;;;;;;;;;;;;;5011762;28;19925;-60
2022/04/17 12:09:01;;;;;;;;;;;;;;;;;;5015182;28;20325;-60
2022/04/17 12:11:26;;;;;;;;;;;;;;;;;;5011952;28;19956;-59
2022/04/17 12:13:51;;;;;;;;;;;;;;;;;;5016687;28;19960;-60
2022/04/17 12:16:16;;;;;;;;;;;;;;;;;;5012589;28;20349;-59
2022/04/17 12:18:41;;;;;;;;;;;;;;;;;;5012608;28;19976;-60
2022/04/17 12:21:07;;;;;;;;;;;;;;;;;;5011579;28;20374;-61
2022/04/17 12:23:35;;;;;;;;;;;;;;;;;;5021733;28;19920;-61
2022/04/17 12:26:00;;;;;;;;;;;;;;;;;;5013438;28;19918;-61
2022/04/17 12:28:25;;;;;;;;;;;;;;;;;;5017220;28;19913;-60
2022/04/17 12:30:50;;;;;;;;;;;;;;;;;;5012008;28;19913;-60
2022/04/17 12:33:16;;;;;;;;;;;;;;;;;;5040205;28;19996;-60
2022/04/17 12:35:42;;;;;;;;;;;;;;;;;;5011761;28;19909;-60
2022/04/17 12:38:07;;;;;;;;;;;;;;;;;;5016063;28;20378;-62
2022/04/17 12:40:35;;;;;;;;;;;;;;;;;;5020346;28;19909;-60
2022/04/17 12:43:01;;;;;;;;;;;;;;;;;;5010709;28;19925;-60
2022/04/17 12:45:26;;;;;;;;;;;;;;;;;;5045348;28;19918;-60
2022/04/17 12:47:51;;;;;;;;;;;;;;;;;;5003466;28;20242;-62
2022/04/17 12:50:16;;;;;;;;;;;;;;;;;;5012118;28;19971;-60
2022/04/17 12:52:41;;;;;;;;;;;;;;;;;;5008908;28;19925;-59
2022/04/17 12:55:07;;;;;;;;;;;;;;;;;;5019826;28;19913;-60
2022/04/17 12:57:32;;;;;;;;;;;;;;;;;;5017378;28;20262;-60
2022/04/17 12:59:57;;;;;;;;;;;;;;;;;;4999060;28;19983;-61
2022/04/17 13:02:22;;;;;;;;;;;;;;;;;;5010569;28;19921;-60
2022/04/17 13:04:48;;;;;;;;;;;;;;;;;;5013562;28;19920;-60
2022/04/17 13:07:13;;;;;;;;;;;;;;;;;;5018434;28;19918;-59
2022/04/17 13:09:39;;;;;;;;;;;;;;;;;;5008769;28;19905;-60
2022/04/17 13:12:04;;;;;;;;;;;;;;;;;;5015218;28;19918;-60
2022/04/17 13:14:29;;;;;;;;;;;;;;;;;;5013012;28;19921;-60
2022/04/17 13:16:56;;;;;;;;;;;;;;;;;;5013596;28;20004;-61
2022/04/17 13:19:22;;;;;;;;;;;;;;;;;;5016606;28;19914;-60
2022/04/17 13:21:47;;;;;;;;;;;;;;;;;;5010284;28;19925;-60
2022/04/17 13:24:15;;;;;;;;;;;;;;;;;;5015149;28;20524;-60
2022/04/17 13:26:40;;;;;;;;;;;;;;;;;;5012371;28;19993;-61
2022/04/17 13:29:06;;;;;;;;;;;;;;;;;;5011643;28;19909;-60
2022/04/17 13:31:31;;;;;;;;;;;;;;;;;;5028936;28;20023;-60
2022/04/17 13:33:56;;;;;;;;;;;;;;;;;;5014081;28;19914;-61
2022/04/17 13:36:21;;;;;;;;;;;;;;;;;;5019281;28;20003;-60
2022/04/17 13:38:46;;;;;;;;;;;;;;;;;;5020337;28;19925;-61
2022/04/17 13:41:12;;;;;;;;;;;;;;;;;;5014495;28;19925;-60
2022/04/17 13:43:37;;;;;;;;;;;;;;;;;;5012869;28;20008;-62
2022/04/17 13:46:02;;;;;;;;;;;;;;;;;;5018939;28;19974;-61
2022/04/17 13:48:27;;;;;;;;;;;;;;;;;;5011268;28;20000;-61
2022/04/17 13:50:52;;;;;;;;;;;;;;;;;;5042390;28;19909;-61
2022/04/17 13:53:18;;;;;;;;;;;;;;;;;;5014071;28;20028;-62
2022/04/17 13:55:43;;;;;;;;;;;;;;;;;;5018893;28;20256;-61
2022/04/17 13:58:08;;;;;;;;;;;;;;;;;;5016714;28;20036;-61
2022/04/17 14:00:33;;;;;;;;;;;;;;;;;;5012040;28;19921;-60
2022/04/17 14:02:59;;;;;;;;;;;;;;;;;;5014017;28;19921;-60
2022/04/17 14:05:24;;;;;;;;;;;;;;;;;;5017339;28;19958;-61
2022/04/17 14:07:49;;;;;;;;;;;;;;;;;;5013760;28;20162;-61
2022/04/17 14:10:14;;;;;;;;;;;;;;;;;;5034078;28;19917;-61
2022/04/17 14:12:40;;;;;;;;;;;;;;;;;;5025087;28;20004;-61
2022/04/17 14:15:05;;;;;;;;;;;;;;;;;;5010784;28;19906;-62
2022/04/17 14:17:30;;;;;;;;;;;;;;;;;;5011963;28;19914;-62
2022/04/17 14:19:55;;;;;;;;;;;;;;;;;;5015533;28;19909;-62
2022/04/17 14:22:24;;;;;;;;;;;;;;;;;;5017188;28;19995;-62
2022/04/17 14:24:49;;;;;;;;;;;;;;;;;;5015020;28;19935;-61
2022/04/17 14:27:14;;;;;;;;;;;;;;;;;;5024413;28;19913;-61
2022/04/17 14:29:40;;;;;;;;;;;;;;;;;;4998674;28;19971;-60
2022/04/17 14:32:05;;;;;;;;;;;;;;;;;;5009804;28;19979;-62
2022/04/17 14:34:30;;;;;;;;;;;;;;;;;;5018592;28;19975;-61
2022/04/17 14:36:55;;;;;;;;;;;;;;;;;;5013577;28;19920;-62
2022/04/17 14:39:21;;;;;;;;;;;;;;;;;;5013226;28;19992;-60
2022/04/17 14:41:46;;;;;;;;;;;;;;;;;;5014117;28;20401;-60
2022/04/17 14:44:12;;;;;;;;;;;;;;;;;;5012246;28;19929;-61
2022/04/17 14:46:37;;;;;;;;;;;;;;;;;;5011389;28;20024;-61
2022/04/17 14:49:02;;;;;;;;;;;;;;;;;;5012548;28;19948;-60
2022/04/17 14:51:27;;;;;;;;;;;;;;;;;;5011870;28;19968;-61
2022/04/17 14:53:53;;;;;;;;;;;;;;;;;;5009928;28;20370;-60
2022/04/17 14:56:19;;;;;;;;;;;;;;;;;;5014654;28;19939;-62
2022/04/17 14:58:44;;;;;;;;;;;;;;;;;;5015646;28;20274;-59
2022/04/17 15:01:09;;;;;;;;;;;;;;;;;;5013345;28;19924;-60
2022/04/17 15:03:34;;;;;;;;;;;;;;;;;;5017767;28;19926;-63
2022/04/17 15:05:59;;;;;;;;;;;;;;;;;;5011278;28;19920;-61
2022/04/17 15:08:25;;;;;;;;;;;;;;;;;;5012959;28;19918;-64
2022/04/17 15:10:51;;;;;;;;;;;;;;;;;;5013114;28;19917;-62
2022/04/17 15:13:17;;;;;;;;;;;;;;;;;;5011546;28;20392;-61
2022/04/17 15:15:42;;;;;;;;;;;;;;;;;;5010372;28;19913;-62
2022/04/17 15:18:08;;;;;;;;;;;;;;;;;;5013728;28;19958;-62
2022/04/17 15:20:33;;;;;;;;;;;;;;;;;;5008783;28;19976;-61
2022/04/17 15:22:58;;;;;;;;;;;;;;;;;;5011258;28;20521;-61
2022/04/17 15:25:24;;;;;;;;;;;;;;;;;;5015574;28;20449;-61
2022/04/17 15:27:49;;;;;;;;;;;;;;;;;;5035756;28;19939;-61
2022/04/17 15:30:15;;;;;;;;;;;;;;;;;;5030949;28;19920;-62
2022/04/17 15:32:40;;;;;;;;;;;;;;;;;;5034855;28;19978;-61
2022/04/17 15:35:05;;;;;;;;;;;;;;;;;;5022918;28;19916;-61
2022/04/17 15:37:32;;;;;;;;;;;;;;;;;;5015448;28;19916;-61
2022/04/17 15:39:57;;;;;;;;;;;;;;;;;;5021162;28;19944;-61
2022/04/17 15:42:22;;;;;;;;;;;;;;;;;;5021228;28;19961;-62
2022/04/17 15:50:15;;;;;;;;;;;;;;;;;;5013281;28;19913;-61
2022/04/17 15:52:40;;;;;;;;;;;;;;;;;;5015599;28;20012;-61
2022/04/17 15:55:06;;;;;;;;;;;;;;;;;;5015125;28;19909;-61
2022/04/17 15:57:31;;;;;;;;;;;;;;;;;;5015535;28;19916;-61
2022/04/17 15:59:56;;;;;;;;;;;;;;;;;;5015398;28;19910;-61
2022/04/17 16:02:21;;;;;;;;;;;;;;;;;;5015407;28;20358;-61
2022/04/17 16:04:47;;;;;;;;;;;;;;;;;;5015364;28;19960;-61
2022/04/17 16:07:12;;;;;;;;;;;;;;;;;;5047211;28;19909;-61
2022/04/17 16:09:37;;;;;;;;;;;;;;;;;;5014967;28;19909;-60
2022/04/17 16:12:02;;;;;;;;;;;;;;;;;;5015199;28;19983;-60
2022/04/17 16:14:27;;;;;;;;;;;;;;;;;;5014841;28;19988;-61
2022/04/17 16:16:53;;;;;;;;;;;;;;;;;;5015180;28;19952;-61
2022/04/17 16:19:19;;;;;;;;;;;;;;;;;;5014837;28;20083;-61
2022/04/17 16:21:44;;;;;;;;;;;;;;;;;;5015536;28;19913;-61
2022/04/17 16:24:09;;;;;;;;;;;;;;;;;;5014963;28;19913;-61
2022/04/17 16:26:35;;;;;;;;;;;;;;;;;;5014693;28;19916;-61
2022/04/17 16:29:00;;;;;;;;;;;;;;;;;;5013473;28;20004;-60
2022/04/17 16:31:25;;;;;;;;;;;;;;;;;;5014302;28;19910;-61
2022/04/17 16:33:50;;;;;;;;;;;;;;;;;;5013737;28;19912;-61
2022/04/17 16:36:15;;;;;;;;;;;;;;;;;;5015497;28;19920;-61
2022/04/17 16:38:41;;;;;;;;;;;;;;;;;;5014841;28;19949;-60
2022/04/17 16:41:06;;;;;;;;;;;;;;;;;;5014473;28;19910;-61
2022/04/17 16:43:32;;;;;;;;;;;;;;;;;;5014605;28;19918;-62
2022/04/17 16:45:57;;;;;;;;;;;;;;;;;;5014605;28;20204;-61
2022/04/17 16:48:22;;;;;;;;;;;;;;;;;;5014639;28;20329;-61
2022/04/17 16:50:47;;;;;;;;;;;;;;;;;;5014271;28;19909;-61
2022/04/17 16:53:14;;;;;;;;;;;;;;;;;;5014482;28;19914;-61
2022/04/17 16:55:39;;;;;;;;;;;;;;;;;;5014349;28;19916;-61
2022/04/17 17:00:50;;;;;;;;;;;;;;;;;;5014349;28;19909;-60